TimeEDT,TemperatureF,Dew PointF,Humidity,Sea Level PressureIn,VisibilityMPH,Wind Direction,Wind SpeedMPH,Gust SpeedMPH,PrecipitationIn,Events,Conditions,WindDirDegrees,DateUTC
12:52 AM,66.0,63.0,90,29.62,8.0,ESE,8.1,16.1,0.05,Rain,Light Rain,120,2013-09-22 04:52:00
1:04 AM,64.4,60.8,88,29.66,1.5,West,13.8,27.6,0.11,Rain,Heavy Rain,270,2013-09-22 05:04:00
1:11 AM,60.8,59.0,94,29.67,1.0,West,6.9,24.2,0.17,Rain,Heavy Rain,280,2013-09-22 05:11:00
1:15 AM,60.8,57.2,88,29.67,2.0,West,6.9,-,0.18,Rain,Rain,280,2013-09-22 05:15:00
1:34 AM,59.0,57.2,94,29.67,1.5,Calm,Calm,-,0.30,Rain,Heavy Rain,0,2013-09-22 05:34:00
1:45 AM,59.0,57.2,94,29.67,3.0,Calm,Calm,-,0.33,Rain,Rain,0,2013-09-22 05:45:00
1:52 AM,59.0,57.9,96,29.66,5.0,Calm,Calm,-,0.34,Rain,Light Rain,0,2013-09-22 05:52:00
2:08 AM,59.0,57.2,94,29.66,5.0,Calm,Calm,-,0.02,Rain,Light Rain,0,2013-09-22 06:08:00
2:47 AM,59.0,57.2,94,29.66,3.0,Calm,Calm,-,0.09,Rain,Rain,0,2013-09-22 06:47:00
2:52 AM,59.0,57.0,93,29.65,4.0,NNW,3.5,-,0.10,Rain,Rain,340,2013-09-22 06:52:00
3:17 AM,59.0,57.2,94,29.64,10.0,NW,3.5,-,0.01,Rain,Light Rain,310,2013-09-22 07:17:00
3:40 AM,57.2,57.2,100,29.64,10.0,Calm,Calm,-,0.01,,Overcast,0,2013-09-22 07:40:00
3:50 AM,57.2,57.2,100,29.64,10.0,Calm,Calm,-,0.01,,Overcast,0,2013-09-22 07:50:00
3:52 AM,59.0,57.0,93,29.63,10.0,NNW,3.5,-,0.01,,Overcast,330,2013-09-22 07:52:00
4:24 AM,57.2,57.2,100,29.64,10.0,Calm,Calm,-,N/A,,Overcast,0,2013-09-22 08:24:00
4:52 AM,59.0,57.9,96,29.65,10.0,Calm,Calm,-,0.00,,Overcast,0,2013-09-22 08:52:00
5:52 AM,57.0,52.0,83,29.69,10.0,West,8.1,16.1,N/A,,Overcast,270,2013-09-22 09:52:00
6:52 AM,55.9,50.0,80,29.72,10.0,West,4.6,-,N/A,,Overcast,280,2013-09-22 10:52:00
7:52 AM,55.0,51.1,86,29.73,10.0,Variable,3.5,-,N/A,,Overcast,0,2013-09-22 11:52:00
8:52 AM,55.0,46.0,72,29.74,10.0,West,8.1,19.6,N/A,,Mostly Cloudy,280,2013-09-22 12:52:00
9:03 AM,55.4,46.4,72,29.74,10.0,West,6.9,-,N/A,,Mostly Cloudy,270,2013-09-22 13:03:00
9:12 AM,55.4,46.4,72,29.74,10.0,Variable,4.6,19.6,N/A,,Mostly Cloudy,0,2013-09-22 13:12:00
9:31 AM,55.4,46.4,72,29.74,10.0,West,5.8,16.1,N/A,,Overcast,260,2013-09-22 13:31:00
9:52 AM,55.9,46.0,69,29.75,10.0,West,4.6,-,N/A,,Overcast,260,2013-09-22 13:52:00
10:52 AM,57.0,46.0,67,29.75,10.0,West,6.9,-,N/A,,Overcast,280,2013-09-22 14:52:00
11:52 AM,60.1,46.9,62,29.75,10.0,West,6.9,-,N/A,,Overcast,270,2013-09-22 15:52:00
12:52 PM,62.1,44.1,52,29.74,10.0,West,8.1,21.9,N/A,,Scattered Clouds,270,2013-09-22 16:52:00
1:52 PM,57.9,41.0,53,29.75,10.0,West,13.8,26.5,N/A,,Overcast,270,2013-09-22 17:52:00
2:52 PM,59.0,43.0,55,29.76,10.0,West,13.8,21.9,N/A,,Overcast,270,2013-09-22 18:52:00
3:52 PM,59.0,39.9,49,29.76,10.0,Variable,5.8,20.7,N/A,,Mostly Cloudy,0,2013-09-22 19:52:00
4:52 PM,57.0,39.0,51,29.79,10.0,West,11.5,19.6,N/A,,Overcast,270,2013-09-22 20:52:00
5:52 PM,55.0,39.0,55,29.80,10.0,West,8.1,18.4,N/A,,Overcast,270,2013-09-22 21:52:00
6:52 PM,54.0,39.0,57,29.83,10.0,West,8.1,18.4,N/A,,Overcast,280,2013-09-22 22:52:00
7:52 PM,53.1,39.0,59,29.85,10.0,West,8.1,17.3,N/A,,Overcast,270,2013-09-22 23:52:00
8:52 PM,52.0,39.9,63,29.87,10.0,West,6.9,17.3,N/A,,Overcast,280,2013-09-23 00:52:00
9:52 PM,51.1,39.0,63,29.89,10.0,West,6.9,-,N/A,,Overcast,260,2013-09-23 01:52:00
10:13 PM,51.8,39.2,62,29.89,10.0,West,5.8,-,N/A,,Overcast,270,2013-09-23 02:13:00
10:34 PM,50.0,39.2,66,29.90,10.0,Variable,5.8,-,N/A,,Mostly Cloudy,0,2013-09-23 02:34:00
10:52 PM,50.0,39.0,66,29.91,10.0,West,4.6,-,N/A,,Overcast,270,2013-09-23 02:52:00
11:52 PM,48.9,39.0,69,29.92,10.0,Variable,5.8,-,N/A,,Mostly Cloudy,0,2013-09-23 03:52:00